Time;durP1;ratioP1;P1;durP2;ratioP2;P2;SDS_P1;SDS_P2;PMS_P1;PMS_P2;Temp;Humidity;BMP_temperature;BMP_pressure;BME280_temperature;BME280_humidity;BME280_pressure;Samples;Min_cycle;Max_cycle;Signal;HPM_P1;HPM_P2
2023/07/11 00:00:10;;;;;;;2.33;0.45;;;;;;;;;;5114609;28;20047;-86
2023/07/11 00:02:36;;;;;;;2.67;0.40;;;;;;;;;;5113538;28;20093;-86
2023/07/11 00:05:02;;;;;;;3.05;0.63;;;;;;;;;;5097308;28;20087;-86
2023/07/11 00:07:28;;;;;;;2.13;0.57;;;;;;;;;;5113519;28;20047;-86
2023/07/11 00:09:54;;;;;;;2.33;0.55;;;;;;;;;;5113439;28;20506;-86
2023/07/11 00:12:21;;;;;;;2.70;0.50;;;;;;;;;;5113450;28;20043;-86
2023/07/11 00:14:47;;;;;;;2.67;0.70;;;;;;;;;;5079541;28;20104;-86
2023/07/11 00:17:13;;;;;;;3.38;0.60;;;;;;;;;;5113417;28;20075;-86
2023/07/11 00:19:47;;;;;;;3.42;0.60;;;;;;;;;;5096832;28;20132;-86
2023/07/11 00:22:13;;;;;;;3.27;0.77;;;;;;;;;;5113634;28;20040;-85
2023/07/11 00:24:39;;;;;;;2.92;0.60;;;;;;;;;;5103814;28;20051;-86
2023/07/11 00:27:05;;;;;;;3.17;1.23;;;;;;;;;;5115288;28;20126;-85
2023/07/11 00:29:31;;;;;;;8.07;0.90;;;;;;;;;;5097893;28;20046;-86
2023/07/11 00:31:57;;;;;;;2.13;0.40;;;;;;;;;;5113143;28;20043;-85
2023/07/11 00:34:23;;;;;;;1.52;0.63;;;;;;;;;;5114282;28;20393;-86
2023/07/11 00:36:49;;;;;;;2.97;0.55;;;;;;;;;;5096169;28;20058;-86
2023/07/11 00:39:16;;;;;;;3.72;1.02;;;;;;;;;;5113018;28;20089;-85
2023/07/11 00:41:43;;;;;;;1.73;0.75;;;;;;;;;;5096263;28;20051;-85
2023/07/11 00:44:12;;;;;;;5.35;0.68;;;;;;;;;;5113827;28;20116;-86
2023/07/11 00:46:38;;;;;;;3.92;0.60;;;;;;;;;;5096138;28;20047;-85
2023/07/11 00:49:05;;;;;;;2.90;0.90;;;;;;;;;;5113093;28;20039;-85
2023/07/11 00:51:35;;;;;;;5.45;0.93;;;;;;;;;;5113066;28;20131;-86
2023/07/11 00:54:03;;;;;;;1.88;0.90;;;;;;;;;;5113324;28;20045;-85
2023/07/11 00:56:31;;;;;;;3.90;1.05;;;;;;;;;;5113085;28;20078;-86
2023/07/11 00:58:58;;;;;;;2.65;1.20;;;;;;;;;;5112380;28;20068;-85
2023/07/11 01:01:24;;;;;;;3.05;0.90;;;;;;;;;;5114053;28;20055;-86
2023/07/11 01:03:52;;;;;;;3.45;1.10;;;;;;;;;;5112135;28;20481;-85
2023/07/11 01:06:20;;;;;;;5.38;1.17;;;;;;;;;;5112991;28;20052;-86
2023/07/11 01:08:48;;;;;;;2.90;1.15;;;;;;;;;;5113051;28;20146;-86
2023/07/11 01:11:14;;;;;;;2.30;1.02;;;;;;;;;;5096007;28;20059;-86
2023/07/11 01:13:40;;;;;;;5.40;1.00;;;;;;;;;;5112713;28;20392;-86
2023/07/11 01:16:07;;;;;;;3.20;1.58;;;;;;;;;;5112715;28;20128;-85
2023/07/11 01:18:33;;;;;;;3.05;0.93;;;;;;;;;;5112908;28;20481;-86
2023/07/11 01:20:59;;;;;;;7.30;1.10;;;;;;;;;;5096155;28;20458;-86
2023/07/11 01:23:26;;;;;;;3.13;1.05;;;;;;;;;;5113345;28;20052;-86
2023/07/11 01:25:59;;;;;;;4.18;0.82;;;;;;;;;;5112845;28;20051;-86
2023/07/11 01:28:25;;;;;;;2.17;0.88;;;;;;;;;;5095960;28;20082;-86
2023/07/11 01:30:51;;;;;;;2.80;0.75;;;;;;;;;;5095645;28;20040;-86
2023/07/11 01:33:17;;;;;;;3.47;1.20;;;;;;;;;;5113889;28;20040;-86
2023/07/11 01:35:43;;;;;;;4.32;1.20;;;;;;;;;;5096056;28;20416;-85
2023/07/11 01:38:09;;;;;;;2.85;0.95;;;;;;;;;;5112418;28;20040;-86
2023/07/11 01:40:35;;;;;;;3.33;1.10;;;;;;;;;;5112024;28;20153;-85
2023/07/11 01:43:03;;;;;;;4.22;1.00;;;;;;;;;;5097098;28;20485;-85
2023/07/11 01:45:29;;;;;;;2.53;1.20;;;;;;;;;;5099597;28;20043;-85
2023/07/11 01:47:55;;;;;;;3.33;1.25;;;;;;;;;;5116384;28;20044;-85
2023/07/11 01:50:21;;;;;;;6.20;1.35;;;;;;;;;;5117304;28;20059;-85
2023/07/11 01:52:47;;;;;;;4.45;1.20;;;;;;;;;;5115365;28;20043;-85
2023/07/11 01:55:13;;;;;;;3.08;1.45;;;;;;;;;;5115955;28;20043;-85
2023/07/11 01:57:39;;;;;;;3.55;1.10;;;;;;;;;;5116191;28;20507;-85
2023/07/11 02:00:07;;;;;;;3.33;1.10;;;;;;;;;;5099007;28;20039;-85
2023/07/11 02:02:33;;;;;;;4.97;1.52;;;;;;;;;;5115671;28;20063;-85
2023/07/11 02:04:59;;;;;;;4.45;1.10;;;;;;;;;;5115918;28;20097;-85
2023/07/11 02:07:25;;;;;;;5.88;1.58;;;;;;;;;;5115970;28;20043;-85
2023/07/11 02:09:51;;;;;;;7.18;1.27;;;;;;;;;;5098889;28;20044;-85
2023/07/11 02:12:17;;;;;;;4.60;1.63;;;;;;;;;;5115719;28;20040;-85
2023/07/11 02:14:43;;;;;;;5.55;1.40;;;;;;;;;;5115557;28;20072;-85
2023/07/11 02:17:10;;;;;;;4.28;1.20;;;;;;;;;;5099173;28;20400;-85
2023/07/11 02:19:36;;;;;;;5.70;1.30;;;;;;;;;;5098653;28;20050;-85
2023/07/11 02:22:02;;;;;;;4.45;1.25;;;;;;;;;;5116626;28;20050;-85
2023/07/11 02:24:28;;;;;;;2.65;1.50;;;;;;;;;;5098262;28;20112;-85
2023/07/11 02:26:54;;;;;;;5.00;1.60;;;;;;;;;;5115370;28;20138;-85
2023/07/11 02:29:20;;;;;;;4.85;1.30;;;;;;;;;;5117170;28;20035;-85
2023/07/11 02:31:46;;;;;;;3.38;1.08;;;;;;;;;;5098446;28;20100;-85
2023/07/11 02:34:12;;;;;;;3.60;1.08;;;;;;;;;;5115995;28;20565;-85
2023/07/11 02:36:38;;;;;;;2.33;1.25;;;;;;;;;;5115652;28;20366;-85
2023/07/11 02:39:04;;;;;;;3.65;1.20;;;;;;;;;;5115056;28;20054;-85
2023/07/11 02:41:31;;;;;;;2.17;0.90;;;;;;;;;;5114944;28;20039;-85
2023/07/11 02:43:59;;;;;;;2.50;1.27;;;;;;;;;;5098328;28;20130;-85
2023/07/11 02:46:25;;;;;;;3.22;1.08;;;;;;;;;;5116142;28;20051;-85
2023/07/11 02:48:51;;;;;;;2.95;1.30;;;;;;;;;;5115274;28;20047;-85
2023/07/11 02:51:17;;;;;;;2.83;1.15;;;;;;;;;;5098099;28;20046;-85
2023/07/11 02:53:44;;;;;;;6.65;1.40;;;;;;;;;;5080460;28;20051;-85
2023/07/11 02:56:10;;;;;;;3.33;1.45;;;;;;;;;;5114921;28;20165;-85
2023/07/11 02:58:36;;;;;;;3.83;1.45;;;;;;;;;;5114736;28;20087;-85
2023/07/11 03:01:02;;;;;;;5.75;1.60;;;;;;;;;;5114749;28;20464;-86
2023/07/11 03:03:28;;;;;;;3.60;1.35;;;;;;;;;;5116035;28;20142;-86
2023/07/11 03:05:55;;;;;;;3.55;0.88;;;;;;;;;;5116600;28;20059;-86
2023/07/11 03:08:21;;;;;;;2.15;1.25;;;;;;;;;;5118903;28;20138;-85
2023/07/11 03:10:48;;;;;;;3.10;1.40;;;;;;;;;;5115455;28;20051;-85
2023/07/11 03:13:14;;;;;;;3.70;1.35;;;;;;;;;;5114786;28;20126;-85
2023/07/11 03:15:40;;;;;;;3.22;1.48;;;;;;;;;;5114579;28;20044;-86
2023/07/11 03:18:07;;;;;;;4.22;1.30;;;;;;;;;;5114505;28;20057;-85
2023/07/11 03:20:37;;;;;;;3.42;1.20;;;;;;;;;;5097255;28;20046;-86
2023/07/11 03:23:03;;;;;;;3.05;1.38;;;;;;;;;;5115114;28;20040;-86
2023/07/11 03:25:29;;;;;;;4.97;1.00;;;;;;;;;;5114410;28;20087;-85
2023/07/11 03:27:55;;;;;;;4.13;1.48;;;;;;;;;;5114968;28;20039;-86
2023/07/11 03:30:21;;;;;;;3.80;1.30;;;;;;;;;;5114376;28;20056;-86
2023/07/11 03:32:47;;;;;;;6.13;1.60;;;;;;;;;;5113660;28;20044;-86
2023/07/11 03:35:14;;;;;;;1.90;1.10;;;;;;;;;;5096437;28;20055;-86
2023/07/11 03:37:40;;;;;;;2.40;1.30;;;;;;;;;;5114438;28;20493;-86
2023/07/11 03:40:07;;;;;;;7.05;1.60;;;;;;;;;;5113880;28;20047;-86
2023/07/11 03:42:33;;;;;;;4.07;1.60;;;;;;;;;;5113995;28;20176;-85
2023/07/11 03:44:59;;;;;;;3.55;2.10;;;;;;;;;;5080459;28;20054;-85
2023/07/11 03:47:25;;;;;;;2.88;1.33;;;;;;;;;;5114871;28;20492;-85
2023/07/11 03:49:51;;;;;;;3.72;1.50;;;;;;;;;;5096855;28;20035;-85
2023/07/11 03:52:17;;;;;;;3.22;1.73;;;;;;;;;;5114712;28;20079;-85
2023/07/11 03:54:43;;;;;;;5.22;1.73;;;;;;;;;;5114059;28;20082;-85
2023/07/11 03:57:09;;;;;;;4.10;1.90;;;;;;;;;;5114856;28;20116;-84
2023/07/11 03:59:35;;;;;;;3.85;1.55;;;;;;;;;;5113549;28;20047;-85
2023/07/11 04:02:01;;;;;;;4.22;2.03;;;;;;;;;;5096619;28;20400;-85
2023/07/11 04:04:28;;;;;;;7.53;1.48;;;;;;;;;;5113268;28;20043;-85
2023/07/11 04:06:55;;;;;;;4.82;1.35;;;;;;;;;;5079539;28;20047;-85
2023/07/11 04:09:21;;;;;;;2.45;1.50;;;;;;;;;;5114499;28;20040;-85
2023/07/11 04:11:47;;;;;;;4.25;1.83;;;;;;;;;;5113832;28;20055;-85
2023/07/11 04:14:13;;;;;;;3.38;1.85;;;;;;;;;;5113378;28;20055;-85
2023/07/11 04:16:39;;;;;;;5.25;1.52;;;;;;;;;;5113520;28;20048;-86
2023/07/11 04:19:06;;;;;;;4.25;2.20;;;;;;;;;;5113143;28;20100;-85
2023/07/11 04:21:32;;;;;;;2.88;2.08;;;;;;;;;;5113367;28;20048;-85
2023/07/11 04:23:58;;;;;;;3.15;1.55;;;;;;;;;;5112815;28;20036;-85
2023/07/11 04:26:24;;;;;;;4.07;1.92;;;;;;;;;;5113380;28;20080;-84
2023/07/11 04:28:50;;;;;;;5.75;1.80;;;;;;;;;;5112115;28;20556;-85
2023/07/11 04:31:16;;;;;;;3.17;1.70;;;;;;;;;;5112835;28;20055;-85
2023/07/11 04:33:42;;;;;;;5.47;2.03;;;;;;;;;;5112960;28;20058;-84
2023/07/11 04:36:10;;;;;;;5.40;1.70;;;;;;;;;;5096275;28;20044;-84
2023/07/11 04:38:36;;;;;;;3.00;1.75;;;;;;;;;;5113041;28;20047;-84
2023/07/11 04:41:06;;;;;;;2.40;1.80;;;;;;;;;;5112609;28;20039;-84
2023/07/11 04:43:35;;;;;;;4.50;1.77;;;;;;;;;;5096104;28;20075;-84
2023/07/11 04:46:02;;;;;;;2.58;1.77;;;;;;;;;;5096084;28;20043;-84
2023/07/11 04:48:28;;;;;;;3.92;1.52;;;;;;;;;;5079330;28;20083;-84
2023/07/11 04:50:58;;;;;;;4.18;1.83;;;;;;;;;;5096207;28;20089;-84
2023/07/11 04:53:24;;;;;;;6.25;2.30;;;;;;;;;;5112465;28;20138;-85
2023/07/11 04:55:56;;;;;;;4.10;1.60;;;;;;;;;;5096205;28;20427;-84
2023/07/11 04:58:22;;;;;;;2.03;1.48;;;;;;;;;;5095934;28;20092;-85
2023/07/11 05:00:48;;;;;;;3.15;1.73;;;;;;;;;;5096158;28;20047;-85
2023/07/11 05:03:14;;;;;;;3.75;1.75;;;;;;;;;;5095433;28;20443;-85
2023/07/11 05:05:40;;;;;;;1.90;1.27;;;;;;;;;;5112924;28;20134;-84
2023/07/11 05:08:06;;;;;;;4.28;1.85;;;;;;;;;;5112957;28;20043;-85
2023/07/11 05:10:33;;;;;;;4.07;1.80;;;;;;;;;;5112808;28;20040;-85
2023/07/11 05:12:59;;;;;;;4.22;2.03;;;;;;;;;;5112474;28;20047;-85
2023/07/11 05:15:25;;;;;;;3.92;1.63;;;;;;;;;;5096199;28;20411;-84
2023/07/11 05:17:51;;;;;;;2.90;1.35;;;;;;;;;;5114189;28;20096;-85
2023/07/11 05:20:17;;;;;;;4.00;1.50;;;;;;;;;;5082699;28;20047;-85
2023/07/11 05:22:43;;;;;;;5.63;1.90;;;;;;;;;;5117988;28;20087;-85
2023/07/11 05:25:09;;;;;;;4.68;1.95;;;;;;;;;;5099418;28;20047;-84
2023/07/11 05:27:35;;;;;;;2.80;1.08;;;;;;;;;;5117801;28;20066;-85
2023/07/11 05:30:02;;;;;;;5.25;1.40;;;;;;;;;;5116294;28;20051;-84
2023/07/11 05:32:28;;;;;;;3.83;1.35;;;;;;;;;;5099506;28;20053;-84
2023/07/11 05:34:54;;;;;;;4.03;1.63;;;;;;;;;;5116936;28;20416;-84
2023/07/11 05:37:20;;;;;;;2.00;1.25;;;;;;;;;;5116842;28;20108;-85
2023/07/11 05:39:47;;;;;;;4.32;1.48;;;;;;;;;;5099372;28;20039;-85
2023/07/11 05:42:13;;;;;;;3.33;1.25;;;;;;;;;;5116548;28;20052;-85
2023/07/11 05:44:39;;;;;;;3.22;1.52;;;;;;;;;;5116489;28;20039;-85
2023/07/11 05:47:05;;;;;;;3.95;1.15;;;;;;;;;;5116625;28;20054;-84
2023/07/11 05:49:32;;;;;;;5.82;1.52;;;;;;;;;;5100364;28;20048;-84
2023/07/11 05:51:58;;;;;;;2.78;1.35;;;;;;;;;;5096633;28;20160;-85
2023/07/11 05:54:24;;;;;;;4.45;1.30;;;;;;;;;;5078531;28;20056;-85
2023/07/11 05:56:50;;;;;;;4.68;1.08;;;;;;;;;;5078661;28;20048;-85
2023/07/11 05:59:18;;;;;;;3.97;1.25;;;;;;;;;;5095385;28;20044;-84
2023/07/11 06:01:44;;;;;;;3.40;1.40;;;;;;;;;;5096029;28;20131;-83
2023/07/11 06:04:12;;;;;;;1.73;1.40;;;;;;;;;;5078398;28;20048;-84
2023/07/11 06:06:41;;;;;;;2.33;1.33;;;;;;;;;;5096577;28;20106;-83
2023/07/11 06:09:12;;;;;;;2.63;1.13;;;;;;;;;;5095411;28;20047;-83
2023/07/11 06:11:38;;;;;;;3.38;1.30;;;;;;;;;;5095129;28;20044;-84
2023/07/11 06:14:04;;;;;;;3.13;1.38;;;;;;;;;;5095465;28;20051;-84
2023/07/11 06:16:31;;;;;;;2.45;1.50;;;;;;;;;;5096476;28;20131;-83
2023/07/11 06:18:58;;;;;;;2.05;1.00;;;;;;;;;;5096197;28;20048;-84
2023/07/11 06:21:24;;;;;;;4.15;1.10;;;;;;;;;;5094952;28;20058;-85
2023/07/11 06:23:50;;;;;;;2.78;0.95;;;;;;;;;;5078080;28;20040;-84
2023/07/11 06:26:16;;;;;;;7.40;1.10;;;;;;;;;;5095435;28;20040;-84
2023/07/11 06:28:43;;;;;;;2.20;1.08;;;;;;;;;;5085187;28;20044;-84
2023/07/11 06:31:10;;;;;;;2.72;1.05;;;;;;;;;;5094537;28;20619;-83
2023/07/11 06:33:37;;;;;;;3.42;1.05;;;;;;;;;;5095053;28;20496;-84
2023/07/11 06:36:04;;;;;;;2.72;1.15;;;;;;;;;;5078124;28;20051;-84
2023/07/11 06:38:30;;;;;;;5.50;1.10;;;;;;;;;;5094729;28;20131;-83
2023/07/11 06:40:56;;;;;;;3.35;1.15;;;;;;;;;;5077901;28;20097;-83
2023/07/11 06:43:24;;;;;;;2.75;1.05;;;;;;;;;;5094891;28;20542;-84
2023/07/11 06:45:51;;;;;;;3.33;1.08;;;;;;;;;;5095773;28;20044;-83
2023/07/11 06:48:18;;;;;;;3.63;1.08;;;;;;;;;;5095129;28;20040;-83
2023/07/11 06:50:52;;;;;;;4.35;1.20;;;;;;;;;;5094614;28;20055;-84
2023/07/11 06:53:19;;;;;;;4.07;1.33;;;;;;;;;;5093989;28;20131;-84
2023/07/11 06:55:46;;;;;;;1.95;1.08;;;;;;;;;;5077574;28;20085;-84
2023/07/11 06:58:12;;;;;;;3.15;1.27;;;;;;;;;;5094617;28;20044;-83
2023/07/11 07:00:38;;;;;;;2.92;1.40;;;;;;;;;;5111141;28;20128;-83
2023/07/11 07:03:07;;;;;;;4.70;1.08;;;;;;;;;;5077096;28;20055;-85
2023/07/11 07:05:33;;;;;;;1.88;1.00;;;;;;;;;;5095459;28;20450;-83
2023/07/11 07:07:59;;;;;;;3.97;1.35;;;;;;;;;;5097298;27;20118;-85
2023/07/11 07:10:25;;;;;;;2.95;1.20;;;;;;;;;;5093889;28;20048;-85
2023/07/11 07:12:51;;;;;;;2.65;1.10;;;;;;;;;;5111074;28;20055;-85
2023/07/11 07:15:18;;;;;;;3.17;0.88;;;;;;;;;;5114913;28;20044;-86
2023/07/11 07:17:44;;;;;;;3.28;0.90;;;;;;;;;;5112366;28;20436;-85
2023/07/11 07:20:10;;;;;;;3.58;1.15;;;;;;;;;;5114011;28;20243;-84
2023/07/11 07:22:36;;;;;;;3.40;1.08;;;;;;;;;;5097029;28;20058;-85
2023/07/11 07:25:02;;;;;;;1.85;0.70;;;;;;;;;;5080251;28;20132;-85
2023/07/11 07:27:28;;;;;;;4.18;1.10;;;;;;;;;;5114256;28;20131;-83
2023/07/11 07:29:55;;;;;;;3.70;1.10;;;;;;;;;;5111103;28;20039;-85
2023/07/11 07:32:21;;;;;;;3.17;0.98;;;;;;;;;;5114087;28;20146;-83
2023/07/11 07:34:47;;;;;;;3.78;0.80;;;;;;;;;;5097220;28;20043;-85
2023/07/11 07:37:13;;;;;;;3.40;0.77;;;;;;;;;;5113929;28;20047;-85
2023/07/11 07:39:40;;;;;;;3.63;1.27;;;;;;;;;;5112930;28;20051;-85
2023/07/11 07:42:07;;;;;;;8.32;1.30;;;;;;;;;;5108234;28;20453;-82
2023/07/11 07:44:33;;;;;;;2.42;0.98;;;;;;;;;;5114955;28;20075;-85
2023/07/11 07:47:00;;;;;;;3.33;0.70;;;;;;;;;;5113330;28;20048;-84
2023/07/11 07:49:26;;;;;;;2.67;0.90;;;;;;;;;;5113839;28;20047;-83
2023/07/11 07:51:53;;;;;;;5.22;1.02;;;;;;;;;;5114843;28;20055;-84
2023/07/11 07:54:19;;;;;;;3.65;0.90;;;;;;;;;;5107207;28;20557;-85
2023/07/11 07:56:45;;;;;;;4.20;0.88;;;;;;;;;;5114386;28;20385;-84
2023/07/11 07:59:11;;;;;;;1.58;0.82;;;;;;;;;;5080280;28;20092;-85
2023/07/11 08:01:37;;;;;;;2.90;0.93;;;;;;;;;;5093549;28;20054;-85
2023/07/11 08:04:04;;;;;;;3.10;0.80;;;;;;;;;;5108430;28;20156;-85
2023/07/11 08:06:30;;;;;;;5.53;0.70;;;;;;;;;;5099610;28;20140;-84
2023/07/11 08:08:56;;;;;;;3.28;0.70;;;;;;;;;;5113112;28;20046;-84
2023/07/11 08:11:22;;;;;;;2.50;0.70;;;;;;;;;;5079867;28;20070;-85
2023/07/11 08:13:49;;;;;;;1.52;0.50;;;;;;;;;;5113630;28;20043;-84
2023/07/11 08:16:15;;;;;;;1.33;0.68;;;;;;;;;;5111193;28;20052;-85
2023/07/11 08:18:41;;;;;;;2.33;0.60;;;;;;;;;;5112897;28;20039;-85
2023/07/11 08:21:07;;;;;;;2.50;0.77;;;;;;;;;;5096060;28;20084;-85
2023/07/11 08:23:33;;;;;;;2.20;0.60;;;;;;;;;;5075825;28;20048;-85
2023/07/11 08:25:59;;;;;;;2.47;0.70;;;;;;;;;;5106937;28;20116;-85
2023/07/11 08:28:25;;;;;;;3.75;0.50;;;;;;;;;;5109160;28;20477;-85
2023/07/11 08:30:52;;;;;;;3.65;1.30;;;;;;;;;;5112936;28;20093;-85
2023/07/11 08:33:18;;;;;;;4.82;0.70;;;;;;;;;;5096806;28;20043;-85
2023/07/11 08:35:44;;;;;;;3.67;0.73;;;;;;;;;;5118427;28;20044;-84
2023/07/11 08:38:13;;;;;;;2.33;0.50;;;;;;;;;;5109421;28;20059;-86
2023/07/11 08:40:48;;;;;;;2.90;0.60;;;;;;;;;;5112343;28;20040;-86
2023/07/11 08:43:23;;;;;;;3.70;0.50;;;;;;;;;;5113254;28;20080;-86
2023/07/11 08:45:56;;;;;;;2.55;0.50;;;;;;;;;;5113828;28;20484;-85
2023/07/11 08:48:29;;;;;;;1.77;0.50;;;;;;;;;;5094738;28;20066;-86
2023/07/11 08:51:04;;;;;;;3.00;0.60;;;;;;;;;;5112941;28;20048;-86
2023/07/11 08:53:36;;;;;;;5.15;0.70;;;;;;;;;;5119623;28;20520;-87
2023/07/11 08:56:26;;;;;;;3.90;0.80;;;;;;;;;;5120316;28;20039;-86
2023/07/11 08:58:53;;;;;;;2.88;0.70;;;;;;;;;;5093039;28;20134;-86
2023/07/11 09:01:31;;;;;;;2.78;0.65;;;;;;;;;;5103134;28;20050;-85
2023/07/11 09:03:59;;;;;;;1.45;0.60;;;;;;;;;;5098909;28;20052;-86
2023/07/11 09:06:30;;;;;;;1.67;0.50;;;;;;;;;;5117807;28;20387;-85
2023/07/11 09:08:56;;;;;;;3.08;0.50;;;;;;;;;;5119601;28;20411;-84
2023/07/11 09:11:22;;;;;;;2.72;0.65;;;;;;;;;;5118007;28;20035;-83
2023/07/11 09:13:48;;;;;;;3.17;0.50;;;;;;;;;;5119635;28;20044;-83
2023/07/11 09:16:22;;;;;;;2.28;0.77;;;;;;;;;;5119227;28;20130;-84
2023/07/11 09:18:48;;;;;;;4.75;0.60;;;;;;;;;;5103473;28;20031;-84
2023/07/11 09:21:20;;;;;;;2.15;0.80;;;;;;;;;;5119069;28;20051;-84
2023/07/11 09:23:55;;;;;;;3.92;1.00;;;;;;;;;;5118685;28;20050;-84
2023/07/11 09:26:26;;;;;;;2.53;0.65;;;;;;;;;;5118534;28;20051;-85
2023/07/11 09:28:54;;;;;;;3.38;0.57;;;;;;;;;;5119686;28;20092;-84
2023/07/11 09:31:22;;;;;;;3.85;0.75;;;;;;;;;;5119596;28;20044;-85
2023/07/11 09:33:54;;;;;;;3.30;0.50;;;;;;;;;;5119484;28;20515;-85
2023/07/11 09:36:30;;;;;;;2.55;0.52;;;;;;;;;;5118306;28;20130;-84
2023/07/11 09:39:20;;;;;;;2.97;0.60;;;;;;;;;;5098865;28;20182;-85
2023/07/11 09:41:49;;;;;;;3.88;0.68;;;;;;;;;;5100730;28;20136;-85
2023/07/11 09:44:15;;;;;;;1.90;0.55;;;;;;;;;;5098926;28;20044;-85
2023/07/11 09:46:42;;;;;;;1.90;0.57;;;;;;;;;;5118610;28;20042;-84
2023/07/11 09:49:10;;;;;;;3.47;0.50;;;;;;;;;;5100896;28;20149;-83
2023/07/11 09:51:48;;;;;;;2.13;0.60;;;;;;;;;;5119228;28;20043;-83
2023/07/11 09:54:19;;;;;;;3.28;0.70;;;;;;;;;;5098482;28;20060;-86
2023/07/11 09:56:47;;;;;;;5.60;0.52;;;;;;;;;;5102463;28;20120;-83
2023/07/11 09:59:13;;;;;;;5.13;0.70;;;;;;;;;;5120054;28;20148;-85
2023/07/11 10:01:39;;;;;;;2.72;0.50;;;;;;;;;;5085616;28;20039;-83
2023/07/11 10:04:07;;;;;;;2.45;0.60;;;;;;;;;;5116783;28;20134;-85
2023/07/11 10:06:35;;;;;;;2.05;0.63;;;;;;;;;;5102697;28;20464;-85
2023/07/11 10:09:21;;;;;;;2.92;0.52;;;;;;;;;;5115994;28;20131;-84
2023/07/11 10:12:08;;;;;;;5.07;0.60;;;;;;;;;;5115542;28;20408;-85
2023/07/11 10:14:35;;;;;;;2.55;0.50;;;;;;;;;;5112814;28;20459;-86
2023/07/11 10:17:22;;;;;;;1.92;0.50;;;;;;;;;;5115675;28;20434;-85
2023/07/11 10:19:54;;;;;;;1.83;0.40;;;;;;;;;;5115546;28;20409;-84
2023/07/11 10:22:21;;;;;;;2.17;0.60;;;;;;;;;;5115460;28;20435;-86
2023/07/11 10:24:48;;;;;;;0.98;0.50;;;;;;;;;;5115119;28;20040;-85
2023/07/11 10:27:16;;;;;;;1.85;0.50;;;;;;;;;;5097824;28;20408;-84
2023/07/11 10:29:48;;;;;;;1.65;0.30;;;;;;;;;;5116431;28;20054;-85
2023/07/11 10:32:17;;;;;;;4.07;0.57;;;;;;;;;;5115255;28;20051;-85
2023/07/11 10:35:03;;;;;;;4.05;1.17;;;;;;;;;;5114972;28;20039;-84
2023/07/11 10:37:35;;;;;;;1.48;0.60;;;;;;;;;;5111032;28;20044;-85
2023/07/11 10:40:14;;;;;;;2.10;0.40;;;;;;;;;;5109331;28;20043;-84
2023/07/11 10:42:43;;;;;;;2.58;0.40;;;;;;;;;;5097724;28;20046;-84
2023/07/11 10:45:09;;;;;;;2.88;0.40;;;;;;;;;;5115134;28;20485;-85
2023/07/11 10:47:38;;;;;;;2.55;0.40;;;;;;;;;;5114971;28;20043;-85
2023/07/11 10:50:12;;;;;;;1.77;0.57;;;;;;;;;;5102844;28;20055;-85
2023/07/11 10:52:39;;;;;;;1.70;0.30;;;;;;;;;;5114178;28;20138;-84
2023/07/11 10:55:19;;;;;;;4.57;0.75;;;;;;;;;;5114543;28;20067;-84
2023/07/11 10:57:50;;;;;;;2.75;0.50;;;;;;;;;;5114901;28;20112;-84
2023/07/11 11:00:20;;;;;;;2.22;0.50;;;;;;;;;;5104701;28;20147;-84
2023/07/11 11:02:49;;;;;;;1.67;0.50;;;;;;;;;;5097863;28;20051;-83
2023/07/11 11:05:31;;;;;;;1.58;0.50;;;;;;;;;;5114545;28;20040;-84
2023/07/11 11:08:01;;;;;;;3.53;0.40;;;;;;;;;;5114250;28;20093;-84
2023/07/11 11:10:30;;;;;;;2.58;0.60;;;;;;;;;;5114247;28;20098;-86
2023/07/11 11:12:56;;;;;;;1.90;0.30;;;;;;;;;;5096575;28;20515;-85
2023/07/11 11:15:35;;;;;;;1.80;0.40;;;;;;;;;;5092955;28;20051;-86
2023/07/11 11:18:07;;;;;;;1.67;0.40;;;;;;;;;;5109380;28;20130;-85
2023/07/11 11:20:36;;;;;;;1.83;0.30;;;;;;;;;;5114455;28;20048;-85
2023/07/11 11:23:03;;;;;;;2.65;0.40;;;;;;;;;;5102000;28;20044;-86
2023/07/11 11:25:32;;;;;;;3.22;0.43;;;;;;;;;;5094603;28;20077;-83
2023/07/11 11:27:58;;;;;;;1.77;0.50;;;;;;;;;;5087500;28;20043;-84
2023/07/11 11:30:27;;;;;;;0.95;0.32;;;;;;;;;;5112238;28;20043;-86
2023/07/11 11:32:56;;;;;;;5.82;0.50;;;;;;;;;;5114171;28;20040;-84
2023/07/11 11:35:34;;;;;;;1.45;0.40;;;;;;;;;;5115416;28;20058;-84
2023/07/11 11:38:04;;;;;;;2.63;0.47;;;;;;;;;;5107898;28;20511;-84
2023/07/11 11:40:32;;;;;;;3.17;0.60;;;;;;;;;;5114483;28;20134;-83
2023/07/11 11:43:00;;;;;;;3.10;0.30;;;;;;;;;;5093596;28;20075;-84
2023/07/11 11:45:27;;;;;;;2.30;0.40;;;;;;;;;;5102949;28;20036;-85
2023/07/11 11:47:54;;;;;;;2.42;0.30;;;;;;;;;;5093700;28;20130;-84
2023/07/11 11:50:22;;;;;;;2.38;0.30;;;;;;;;;;5096899;28;20044;-84
2023/07/11 11:52:55;;;;;;;2.78;0.50;;;;;;;;;;5114697;28;20072;-83
2023/07/11 11:55:38;;;;;;;2.53;0.38;;;;;;;;;;5113456;28;20096;-84
2023/07/11 11:58:05;;;;;;;1.52;0.30;;;;;;;;;;5113504;28;20062;-84
2023/07/11 12:00:40;;;;;;;1.55;0.40;;;;;;;;;;5099960;28;20052;-84
2023/07/11 12:03:17;;;;;;;2.33;0.40;;;;;;;;;;5113284;28;20043;-84
2023/07/11 12:05:48;;;;;;;5.30;0.30;;;;;;;;;;5114068;28;20070;-83
2023/07/11 12:08:17;;;;;;;1.35;0.40;;;;;;;;;;5105125;28;20044;-87
2023/07/11 12:11:02;;;;;;;1.95;0.40;;;;;;;;;;5105697;28;20046;-84
2023/07/11 12:13:32;;;;;;;2.15;0.30;;;;;;;;;;5113620;28;20039;-84
2023/07/11 12:16:01;;;;;;;3.08;0.30;;;;;;;;;;5107744;28;20051;-83
2023/07/11 12:18:38;;;;;;;3.03;0.60;;;;;;;;;;5096254;28;20092;-84
2023/07/11 12:21:13;;;;;;;2.92;0.57;;;;;;;;;;5106893;28;20047;-84
2023/07/11 12:24:03;;;;;;;2.13;0.30;;;;;;;;;;5088071;28;20051;-84
2023/07/11 12:26:29;;;;;;;3.92;0.47;;;;;;;;;;5073734;28;20190;-85
2023/07/11 12:29:18;;;;;;;1.65;0.30;;;;;;;;;;5095993;28;20043;-87
2023/07/11 12:31:44;;;;;;;3.15;0.50;;;;;;;;;;5100329;28;20044;-84
2023/07/11 12:34:13;;;;;;;2.63;0.47;;;;;;;;;;5109544;28;20043;-84
2023/07/11 12:36:45;;;;;;;0.88;0.38;;;;;;;;;;5095029;28;20058;-83
2023/07/11 12:39:24;;;;;;;2.28;0.40;;;;;;;;;;5096182;28;20063;-86
2023/07/11 12:42:06;;;;;;;3.15;0.45;;;;;;;;;;5108666;28;20051;-86
2023/07/11 12:44:33;;;;;;;1.48;0.30;;;;;;;;;;5111275;28;20040;-86
2023/07/11 12:47:03;;;;;;;2.10;0.40;;;;;;;;;;5113052;28;20055;-83
2023/07/11 12:49:30;;;;;;;1.48;0.45;;;;;;;;;;5104320;28;20043;-86
2023/07/11 12:52:03;;;;;;;4.40;0.40;;;;;;;;;;5104788;28;20073;-86
2023/07/11 12:54:29;;;;;;;4.22;0.57;;;;;;;;;;5076312;28;20051;-85
2023/07/11 12:56:55;;;;;;;2.38;0.40;;;;;;;;;;5109942;28;20044;-84
2023/07/11 12:59:23;;;;;;;2.88;0.40;;;;;;;;;;5112792;28;20044;-85
2023/07/11 13:01:49;;;;;;;2.25;0.30;;;;;;;;;;5113067;28;20156;-82
2023/07/11 13:04:25;;;;;;;0.88;0.20;;;;;;;;;;5094415;28;20131;-85
2023/07/11 13:06:54;;;;;;;1.02;0.30;;;;;;;;;;5096967;28;20397;-85
2023/07/11 13:09:23;;;;;;;2.65;0.40;;;;;;;;;;5113671;28;20036;-85
2023/07/11 13:11:49;;;;;;;2.38;0.50;;;;;;;;;;5113667;28;20044;-86
2023/07/11 13:14:15;;;;;;;2.60;0.40;;;;;;;;;;5103658;28;20124;-86
2023/07/11 13:16:42;;;;;;;1.65;0.30;;;;;;;;;;5095770;28;20043;-85
2023/07/11 13:19:20;;;;;;;1.45;0.40;;;;;;;;;;5112745;28;20400;-85
2023/07/11 13:21:47;;;;;;;1.42;0.30;;;;;;;;;;5095986;28;20126;-86
2023/07/11 13:24:14;;;;;;;1.63;0.40;;;;;;;;;;5110664;28;20044;-86
2023/07/11 13:26:41;;;;;;;1.92;0.80;;;;;;;;;;5112218;28;20481;-87
2023/07/11 13:29:07;;;;;;;1.67;0.40;;;;;;;;;;5095891;28;20118;-87
2023/07/11 13:31:34;;;;;;;1.42;0.63;;;;;;;;;;5092756;28;20478;-87
2023/07/11 13:34:11;;;;;;;1.92;0.30;;;;;;;;;;5106516;28;20097;-87
2023/07/11 13:36:37;;;;;;;2.13;0.40;;;;;;;;;;5094943;28;20086;-85
2023/07/11 13:39:05;;;;;;;2.17;0.60;;;;;;;;;;5113998;28;20043;-85
2023/07/11 13:41:33;;;;;;;7.70;0.68;;;;;;;;;;5116505;28;20044;-86
2023/07/11 13:44:16;;;;;;;2.90;0.70;;;;;;;;;;5116448;28;20040;-86
2023/07/11 13:46:44;;;;;;;1.67;0.40;;;;;;;;;;5097948;28;20046;-85
2023/07/11 13:49:17;;;;;;;2.60;0.50;;;;;;;;;;5116170;28;20099;-86
2023/07/11 13:51:43;;;;;;;4.00;0.60;;;;;;;;;;5099611;28;20055;-85
2023/07/11 13:54:17;;;;;;;4.25;0.70;;;;;;;;;;5115836;28;20047;-86
2023/07/11 13:56:43;;;;;;;2.88;0.50;;;;;;;;;;5116050;28;20036;-86
2023/07/11 13:59:10;;;;;;;1.40;0.43;;;;;;;;;;5098361;28;20085;-86
2023/07/11 14:01:37;;;;;;;1.77;0.75;;;;;;;;;;5078504;28;20058;-86
2023/07/11 14:04:09;;;;;;;2.20;0.50;;;;;;;;;;5109118;28;20593;-86
2023/07/11 14:06:35;;;;;;;2.25;0.50;;;;;;;;;;5116134;28;20078;-86
2023/07/11 14:09:02;;;;;;;1.52;0.50;;;;;;;;;;5114673;28;20044;-86
2023/07/11 14:11:29;;;;;;;4.57;0.60;;;;;;;;;;5098339;28;20485;-86
2023/07/11 14:13:56;;;;;;;1.73;0.50;;;;;;;;;;5111090;28;20441;-85
2023/07/11 14:16:22;;;;;;;1.48;0.43;;;;;;;;;;5116516;28;20118;-85
2023/07/11 14:18:50;;;;;;;2.05;0.60;;;;;;;;;;5082051;28;20050;-87
2023/07/11 14:21:22;;;;;;;1.30;0.40;;;;;;;;;;5115524;28;20126;-86
2023/07/11 14:23:48;;;;;;;2.90;0.50;;;;;;;;;;5098471;28;20082;-85
2023/07/11 14:26:15;;;;;;;1.55;0.55;;;;;;;;;;5098767;28;20484;-86
2023/07/11 14:28:41;;;;;;;2.28;0.60;;;;;;;;;;5097382;28;20044;-86
2023/07/11 14:31:14;;;;;;;1.65;0.47;;;;;;;;;;5098661;28;20039;-86
2023/07/11 14:33:40;;;;;;;1.00;0.40;;;;;;;;;;5115899;28;20078;-86
2023/07/11 14:36:07;;;;;;;3.72;0.70;;;;;;;;;;5095327;28;20124;-86
2023/07/11 14:38:33;;;;;;;2.25;0.50;;;;;;;;;;5094612;28;20040;-84
2023/07/11 14:41:00;;;;;;;1.30;0.55;;;;;;;;;;5102638;28;20435;-86
2023/07/11 14:43:28;;;;;;;3.92;0.50;;;;;;;;;;5095405;28;20099;-85
2023/07/11 14:45:55;;;;;;;1.85;0.40;;;;;;;;;;5108292;28;20141;-85
2023/07/11 14:48:22;;;;;;;1.92;0.50;;;;;;;;;;5115227;28;20043;-84